sensor_id;sensor_type;location;lat;lon;timestamp;temperature;humidity
17415;DHT22;8825;48.086;16.426;2022-08-19T00:01:33;25.80;44.70
17415;DHT22;8825;48.086;16.426;2022-08-19T00:04:04;25.90;44.60
17415;DHT22;8825;48.086;16.426;2022-08-19T00:06:33;25.90;44.50
17415;DHT22;8825;48.086;16.426;2022-08-19T00:09:03;25.90;44.40
17415;DHT22;8825;48.086;16.426;2022-08-19T00:11:31;25.90;44.30
17415;DHT22;8825;48.086;16.426;2022-08-19T00:13:58;26.00;44.20
17415;DHT22;8825;48.086;16.426;2022-08-19T00:16:26;26.00;44.20
17415;DHT22;8825;48.086;16.426;2022-08-19T00:18:54;26.10;44.30
17415;DHT22;8825;48.086;16.426;2022-08-19T00:21:24;26.10;44.50
17415;DHT22;8825;48.086;16.426;2022-08-19T00:23:54;26.10;44.40
17415;DHT22;8825;48.086;16.426;2022-08-19T00:26:23;26.00;44.50
17415;DHT22;8825;48.086;16.426;2022-08-19T00:28:51;26.00;44.50
17415;DHT22;8825;48.086;16.426;2022-08-19T00:31:19;25.90;44.50
17415;DHT22;8825;48.086;16.426;2022-08-19T00:33:47;25.90;44.50
17415;DHT22;8825;48.086;16.426;2022-08-19T00:36:16;25.90;44.60
17415;DHT22;8825;48.086;16.426;2022-08-19T00:38:45;25.90;44.70
17415;DHT22;8825;48.086;16.426;2022-08-19T00:41:15;25.80;44.80
17415;DHT22;8825;48.086;16.426;2022-08-19T00:43:49;25.80;45.00
17415;DHT22;8825;48.086;16.426;2022-08-19T00:46:12;25.80;45.10
17415;DHT22;8825;48.086;16.426;2022-08-19T00:48:40;25.80;45.20
17415;DHT22;8825;48.086;16.426;2022-08-19T00:51:08;25.80;45.10
17415;DHT22;8825;48.086;16.426;2022-08-19T00:53:36;25.70;45.10
17415;DHT22;8825;48.086;16.426;2022-08-19T00:56:04;25.70;45.10
17415;DHT22;8825;48.086;16.426;2022-08-19T00:58:34;25.70;45.20
17415;DHT22;8825;48.086;16.426;2022-08-19T01:01:03;25.70;45.10
17415;DHT22;8825;48.086;16.426;2022-08-19T01:03:31;25.70;45.00
17415;DHT22;8825;48.086;16.426;2022-08-19T01:05:59;25.70;45.00
17415;DHT22;8825;48.086;16.426;2022-08-19T01:08:27;25.70;45.00
17415;DHT22;8825;48.086;16.426;2022-08-19T01:10:57;25.70;45.00
17415;DHT22;8825;48.086;16.426;2022-08-19T01:13:28;25.70;44.80
17415;DHT22;8825;48.086;16.426;2022-08-19T01:16:00;25.70;44.80
17415;DHT22;8825;48.086;16.426;2022-08-19T01:18:28;25.70;44.70
17415;DHT22;8825;48.086;16.426;2022-08-19T01:21:00;25.70;44.70
17415;DHT22;8825;48.086;16.426;2022-08-19T01:23:27;25.70;44.70
17415;DHT22;8825;48.086;16.426;2022-08-19T01:25:57;25.70;44.70
17415;DHT22;8825;48.086;16.426;2022-08-19T01:28:26;25.70;44.80
17415;DHT22;8825;48.086;16.426;2022-08-19T01:30:55;25.60;44.80
17415;DHT22;8825;48.086;16.426;2022-08-19T01:33:22;25.60;45.00
17415;DHT22;8825;48.086;16.426;2022-08-19T01:35:50;25.60;45.10
17415;DHT22;8825;48.086;16.426;2022-08-19T01:38:26;25.50;44.90
17415;DHT22;8825;48.086;16.426;2022-08-19T01:40:55;25.40;44.90
17415;DHT22;8825;48.086;16.426;2022-08-19T01:43:23;25.30;45.10
17415;DHT22;8825;48.086;16.426;2022-08-19T01:45:51;25.20;45.30
17415;DHT22;8825;48.086;16.426;2022-08-19T01:48:19;25.20;45.50
17415;DHT22;8825;48.086;16.426;2022-08-19T01:50:46;25.10;45.80
17415;DHT22;8825;48.086;16.426;2022-08-19T01:53:14;25.10;46.00
17415;DHT22;8825;48.086;16.426;2022-08-19T01:55:43;25.00;46.70
17415;DHT22;8825;48.086;16.426;2022-08-19T01:58:18;24.90;46.20
17415;DHT22;8825;48.086;16.426;2022-08-19T02:00:47;24.90;46.50
17415;DHT22;8825;48.086;16.426;2022-08-19T02:03:15;24.80;46.50
17415;DHT22;8825;48.086;16.426;2022-08-19T02:05:43;24.70;46.80
17415;DHT22;8825;48.086;16.426;2022-08-19T02:08:12;24.70;47.00
17415;DHT22;8825;48.086;16.426;2022-08-19T02:10:42;24.60;47.20
17415;DHT22;8825;48.086;16.426;2022-08-19T02:13:11;24.50;47.30
17415;DHT22;8825;48.086;16.426;2022-08-19T02:15:39;24.50;47.50
17415;DHT22;8825;48.086;16.426;2022-08-19T02:18:07;24.40;47.40
17415;DHT22;8825;48.086;16.426;2022-08-19T02:20:36;24.30;47.60
17415;DHT22;8825;48.086;16.426;2022-08-19T02:23:04;24.30;48.10
17415;DHT22;8825;48.086;16.426;2022-08-19T02:25:32;24.20;48.50
17415;DHT22;8825;48.086;16.426;2022-08-19T02:27:59;24.20;49.00
17415;DHT22;8825;48.086;16.426;2022-08-19T02:30:27;24.20;49.40
17415;DHT22;8825;48.086;16.426;2022-08-19T02:32:54;24.10;49.70
17415;DHT22;8825;48.086;16.426;2022-08-19T02:35:22;24.10;50.00
17415;DHT22;8825;48.086;16.426;2022-08-19T02:37:50;24.00;50.40
17415;DHT22;8825;48.086;16.426;2022-08-19T02:40:35;24.00;50.50
17415;DHT22;8825;48.086;16.426;2022-08-19T02:43:06;23.90;50.60
17415;DHT22;8825;48.086;16.426;2022-08-19T02:45:35;23.90;51.00
17415;DHT22;8825;48.086;16.426;2022-08-19T02:48:03;23.90;51.30
17415;DHT22;8825;48.086;16.426;2022-08-19T02:50:31;23.90;51.90
17415;DHT22;8825;48.086;16.426;2022-08-19T02:52:59;23.80;52.50
17415;DHT22;8825;48.086;16.426;2022-08-19T02:55:27;23.80;52.90
17415;DHT22;8825;48.086;16.426;2022-08-19T02:57:54;23.80;53.50
17415;DHT22;8825;48.086;16.426;2022-08-19T03:00:23;23.80;54.10
17415;DHT22;8825;48.086;16.426;2022-08-19T03:02:50;23.80;54.30
17415;DHT22;8825;48.086;16.426;2022-08-19T03:05:18;23.80;54.60
17415;DHT22;8825;48.086;16.426;2022-08-19T03:07:46;23.70;54.80
17415;DHT22;8825;48.086;16.426;2022-08-19T03:10:13;23.80;55.00
17415;DHT22;8825;48.086;16.426;2022-08-19T03:12:41;23.80;55.40
17415;DHT22;8825;48.086;16.426;2022-08-19T03:15:09;23.80;55.50
17415;DHT22;8825;48.086;16.426;2022-08-19T03:17:37;23.80;55.40
17415;DHT22;8825;48.086;16.426;2022-08-19T03:20:04;23.80;55.60
17415;DHT22;8825;48.086;16.426;2022-08-19T03:22:32;23.80;55.60
17415;DHT22;8825;48.086;16.426;2022-08-19T03:25:00;23.90;55.60
17415;DHT22;8825;48.086;16.426;2022-08-19T03:27:27;23.90;55.50
17415;DHT22;8825;48.086;16.426;2022-08-19T03:29:56;23.90;55.50
17415;DHT22;8825;48.086;16.426;2022-08-19T03:32:23;23.90;55.40
17415;DHT22;8825;48.086;16.426;2022-08-19T03:34:51;23.90;55.30
17415;DHT22;8825;48.086;16.426;2022-08-19T03:37:19;23.90;55.30
17415;DHT22;8825;48.086;16.426;2022-08-19T03:39:47;23.90;55.40
17415;DHT22;8825;48.086;16.426;2022-08-19T03:42:14;23.90;55.60
17415;DHT22;8825;48.086;16.426;2022-08-19T03:44:43;23.90;55.70
17415;DHT22;8825;48.086;16.426;2022-08-19T03:47:11;23.80;55.60
17415;DHT22;8825;48.086;16.426;2022-08-19T03:49:40;23.80;55.60
17415;DHT22;8825;48.086;16.426;2022-08-19T03:52:08;23.80;55.70
17415;DHT22;8825;48.086;16.426;2022-08-19T03:54:36;23.70;55.70
17415;DHT22;8825;48.086;16.426;2022-08-19T03:57:04;23.70;55.70
17415;DHT22;8825;48.086;16.426;2022-08-19T03:59:35;23.70;55.70
17415;DHT22;8825;48.086;16.426;2022-08-19T04:02:06;23.70;55.70
17415;DHT22;8825;48.086;16.426;2022-08-19T04:04:36;23.70;55.70
17415;DHT22;8825;48.086;16.426;2022-08-19T04:07:04;23.70;55.70
17415;DHT22;8825;48.086;16.426;2022-08-19T04:09:34;23.80;56.30
17415;DHT22;8825;48.086;16.426;2022-08-19T04:12:03;23.80;55.70
17415;DHT22;8825;48.086;16.426;2022-08-19T04:14:32;23.80;55.80
17415;DHT22;8825;48.086;16.426;2022-08-19T04:17:01;23.80;55.80
17415;DHT22;8825;48.086;16.426;2022-08-19T04:19:32;23.80;55.90
17415;DHT22;8825;48.086;16.426;2022-08-19T04:22:00;23.80;56.00
17415;DHT22;8825;48.086;16.426;2022-08-19T04:24:28;23.80;56.00
17415;DHT22;8825;48.086;16.426;2022-08-19T04:26:55;23.90;56.10
17415;DHT22;8825;48.086;16.426;2022-08-19T04:29:24;23.80;56.10
17415;DHT22;8825;48.086;16.426;2022-08-19T04:31:55;23.80;56.30
17415;DHT22;8825;48.086;16.426;2022-08-19T04:34:25;23.80;56.30
17415;DHT22;8825;48.086;16.426;2022-08-19T04:36:54;23.80;56.40
17415;DHT22;8825;48.086;16.426;2022-08-19T04:39:29;23.80;56.30
17415;DHT22;8825;48.086;16.426;2022-08-19T04:41:55;23.80;56.40
17415;DHT22;8825;48.086;16.426;2022-08-19T04:44:40;23.80;56.40
17415;DHT22;8825;48.086;16.426;2022-08-19T04:47:08;23.80;56.50
17415;DHT22;8825;48.086;16.426;2022-08-19T04:49:35;23.90;56.60
17415;DHT22;8825;48.086;16.426;2022-08-19T04:52:03;23.90;56.60
17415;DHT22;8825;48.086;16.426;2022-08-19T04:54:30;23.90;56.60
17415;DHT22;8825;48.086;16.426;2022-08-19T04:56:58;24.00;56.70
17415;DHT22;8825;48.086;16.426;2022-08-19T04:59:25;24.00;56.70
17415;DHT22;8825;48.086;16.426;2022-08-19T05:01:53;24.00;56.70
17415;DHT22;8825;48.086;16.426;2022-08-19T05:04:20;24.10;56.70
17415;DHT22;8825;48.086;16.426;2022-08-19T05:06:48;24.20;56.70
17415;DHT22;8825;48.086;16.426;2022-08-19T05:09:17;24.30;56.80
17415;DHT22;8825;48.086;16.426;2022-08-19T05:11:44;24.30;56.70
17415;DHT22;8825;48.086;16.426;2022-08-19T05:14:12;24.40;56.60
17415;DHT22;8825;48.086;16.426;2022-08-19T05:16:40;24.40;56.60
17415;DHT22;8825;48.086;16.426;2022-08-19T05:19:08;24.50;56.50
17415;DHT22;8825;48.086;16.426;2022-08-19T05:21:54;24.50;56.60
17415;DHT22;8825;48.086;16.426;2022-08-19T05:24:40;24.50;56.50
17415;DHT22;8825;48.086;16.426;2022-08-19T05:27:07;24.50;56.60
17415;DHT22;8825;48.086;16.426;2022-08-19T05:29:35;24.50;56.60
17415;DHT22;8825;48.086;16.426;2022-08-19T05:32:06;24.60;56.80
17415;DHT22;8825;48.086;16.426;2022-08-19T05:34:37;24.70;56.90
17415;DHT22;8825;48.086;16.426;2022-08-19T05:37:05;24.70;56.90
17415;DHT22;8825;48.086;16.426;2022-08-19T05:39:35;24.80;56.90
17415;DHT22;8825;48.086;16.426;2022-08-19T05:42:05;24.80;56.90
17415;DHT22;8825;48.086;16.426;2022-08-19T05:44:36;24.80;57.00
17415;DHT22;8825;48.086;16.426;2022-08-19T05:47:05;24.90;57.10
17415;DHT22;8825;48.086;16.426;2022-08-19T05:49:35;24.90;57.10
17415;DHT22;8825;48.086;16.426;2022-08-19T05:52:09;25.00;57.00
17415;DHT22;8825;48.086;16.426;2022-08-19T05:54:38;25.00;56.90
17415;DHT22;8825;48.086;16.426;2022-08-19T05:57:08;25.00;56.80
17415;DHT22;8825;48.086;16.426;2022-08-19T05:59:36;25.10;56.70
17415;DHT22;8825;48.086;16.426;2022-08-19T06:02:04;25.20;56.50
17415;DHT22;8825;48.086;16.426;2022-08-19T06:04:33;25.20;56.30
17415;DHT22;8825;48.086;16.426;2022-08-19T06:07:01;25.40;56.50
17415;DHT22;8825;48.086;16.426;2022-08-19T06:09:28;25.50;56.20
17415;DHT22;8825;48.086;16.426;2022-08-19T06:11:57;25.60;56.20
17415;DHT22;8825;48.086;16.426;2022-08-19T06:14:29;25.60;56.00
17415;DHT22;8825;48.086;16.426;2022-08-19T06:16:57;25.70;55.70
17415;DHT22;8825;48.086;16.426;2022-08-19T06:19:28;25.80;55.60
17415;DHT22;8825;48.086;16.426;2022-08-19T06:21:57;25.90;55.50
17415;DHT22;8825;48.086;16.426;2022-08-19T06:24:28;25.90;55.40
17415;DHT22;8825;48.086;16.426;2022-08-19T06:26:57;25.90;55.30
17415;DHT22;8825;48.086;16.426;2022-08-19T06:29:27;26.00;55.20
17415;DHT22;8825;48.086;16.426;2022-08-19T06:31:57;26.00;55.10
17415;DHT22;8825;48.086;16.426;2022-08-19T06:34:28;26.10;55.10
17415;DHT22;8825;48.086;16.426;2022-08-19T06:36:57;26.20;54.90
17415;DHT22;8825;48.086;16.426;2022-08-19T06:39:30;26.20;54.80
17415;DHT22;8825;48.086;16.426;2022-08-19T06:42:01;26.30;54.80
17415;DHT22;8825;48.086;16.426;2022-08-19T06:44:32;26.30;54.80
17415;DHT22;8825;48.086;16.426;2022-08-19T06:47:05;26.40;54.80
17415;DHT22;8825;48.086;16.426;2022-08-19T06:49:33;26.50;54.70
17415;DHT22;8825;48.086;16.426;2022-08-19T06:52:01;26.50;54.60
17415;DHT22;8825;48.086;16.426;2022-08-19T06:54:29;26.60;54.50
17415;DHT22;8825;48.086;16.426;2022-08-19T06:56:58;26.60;54.30
17415;DHT22;8825;48.086;16.426;2022-08-19T06:59:29;26.70;54.30
17415;DHT22;8825;48.086;16.426;2022-08-19T07:02:02;26.80;54.20
17415;DHT22;8825;48.086;16.426;2022-08-19T07:04:33;26.90;54.10
17415;DHT22;8825;48.086;16.426;2022-08-19T07:07:11;27.00;54.00
17415;DHT22;8825;48.086;16.426;2022-08-19T07:09:35;27.10;53.90
17415;DHT22;8825;48.086;16.426;2022-08-19T07:12:06;27.20;53.70
17415;DHT22;8825;48.086;16.426;2022-08-19T07:14:34;27.30;53.60
17415;DHT22;8825;48.086;16.426;2022-08-19T07:17:08;27.40;53.30
17415;DHT22;8825;48.086;16.426;2022-08-19T07:19:37;27.50;53.20
17415;DHT22;8825;48.086;16.426;2022-08-19T07:22:06;27.50;52.90
17415;DHT22;8825;48.086;16.426;2022-08-19T07:24:35;27.60;52.70
17415;DHT22;8825;48.086;16.426;2022-08-19T07:27:05;27.70;52.50
17415;DHT22;8825;48.086;16.426;2022-08-19T07:29:34;27.80;52.40
17415;DHT22;8825;48.086;16.426;2022-08-19T07:32:03;27.90;52.20
17415;DHT22;8825;48.086;16.426;2022-08-19T07:34:31;28.00;52.10
17415;DHT22;8825;48.086;16.426;2022-08-19T07:37:01;28.10;51.80
17415;DHT22;8825;48.086;16.426;2022-08-19T07:39:32;28.20;51.70
17415;DHT22;8825;48.086;16.426;2022-08-19T07:42:03;28.30;51.40
17415;DHT22;8825;48.086;16.426;2022-08-19T07:44:30;28.40;51.20
17415;DHT22;8825;48.086;16.426;2022-08-19T07:46:58;28.50;51.10
17415;DHT22;8825;48.086;16.426;2022-08-19T07:49:26;28.60;50.70
17415;DHT22;8825;48.086;16.426;2022-08-19T07:52:00;28.80;50.50
17415;DHT22;8825;48.086;16.426;2022-08-19T07:54:29;28.90;50.40
17415;DHT22;8825;48.086;16.426;2022-08-19T07:56:57;28.90;50.00
17415;DHT22;8825;48.086;16.426;2022-08-19T07:59:27;29.00;49.90
17415;DHT22;8825;48.086;16.426;2022-08-19T08:01:55;29.00;49.90
17415;DHT22;8825;48.086;16.426;2022-08-19T08:04:23;29.00;50.00
17415;DHT22;8825;48.086;16.426;2022-08-19T08:07:09;29.10;49.50
17415;DHT22;8825;48.086;16.426;2022-08-19T08:09:54;29.20;49.30
17415;DHT22;8825;48.086;16.426;2022-08-19T08:12:29;29.30;49.30
17415;DHT22;8825;48.086;16.426;2022-08-19T08:14:55;29.40;49.10
17415;DHT22;8825;48.086;16.426;2022-08-19T08:17:25;29.50;48.90
17415;DHT22;8825;48.086;16.426;2022-08-19T08:19:53;29.60;48.40
17415;DHT22;8825;48.086;16.426;2022-08-19T08:22:22;29.60;48.40
17415;DHT22;8825;48.086;16.426;2022-08-19T08:25:11;29.60;48.00
17415;DHT22;8825;48.086;16.426;2022-08-19T08:27:41;29.60;47.70
17415;DHT22;8825;48.086;16.426;2022-08-19T08:30:11;29.70;47.60
17415;DHT22;8825;48.086;16.426;2022-08-19T08:32:40;29.80;47.30
17415;DHT22;8825;48.086;16.426;2022-08-19T08:35:11;29.90;47.20
17415;DHT22;8825;48.086;16.426;2022-08-19T08:37:38;30.10;47.20
17415;DHT22;8825;48.086;16.426;2022-08-19T08:40:19;30.30;46.80
17415;DHT22;8825;48.086;16.426;2022-08-19T08:45:19;30.40;46.10
17415;DHT22;8825;48.086;16.426;2022-08-19T08:47:50;30.50;46.00
17415;DHT22;8825;48.086;16.426;2022-08-19T08:50:33;30.60;45.80
17415;DHT22;8825;48.086;16.426;2022-08-19T08:53:03;30.80;45.40
17415;DHT22;8825;48.086;16.426;2022-08-19T08:55:33;30.90;45.30
17415;DHT22;8825;48.086;16.426;2022-08-19T08:58:46;31.10;44.90
17415;DHT22;8825;48.086;16.426;2022-08-19T09:00:48;31.40;43.90
17415;DHT22;8825;48.086;16.426;2022-08-19T09:03:21;31.70;43.50
17415;DHT22;8825;48.086;16.426;2022-08-19T09:05:59;31.90;43.40
17415;DHT22;8825;48.086;16.426;2022-08-19T09:08:45;32.00;43.10
17415;DHT22;8825;48.086;16.426;2022-08-19T09:11:23;32.00;42.90
17415;DHT22;8825;48.086;16.426;2022-08-19T09:16:38;32.40;41.80
17415;DHT22;8825;48.086;16.426;2022-08-19T09:19:08;32.70;41.50
17415;DHT22;8825;48.086;16.426;2022-08-19T09:21:37;32.90;41.00
17415;DHT22;8825;48.086;16.426;2022-08-19T09:24:05;33.10;40.20
17415;DHT22;8825;48.086;16.426;2022-08-19T09:26:33;33.20;39.70
17415;DHT22;8825;48.086;16.426;2022-08-19T09:29:02;33.40;39.50
17415;DHT22;8825;48.086;16.426;2022-08-19T09:31:32;33.80;39.10
17415;DHT22;8825;48.086;16.426;2022-08-19T09:34:00;34.10;38.60
17415;DHT22;8825;48.086;16.426;2022-08-19T09:36:29;34.30;38.00
17415;DHT22;8825;48.086;16.426;2022-08-19T09:38:58;34.60;37.60
17415;DHT22;8825;48.086;16.426;2022-08-19T09:41:27;34.70;36.80
17415;DHT22;8825;48.086;16.426;2022-08-19T09:43:57;35.00;36.20
17415;DHT22;8825;48.086;16.426;2022-08-19T09:46:27;35.10;35.50
17415;DHT22;8825;48.086;16.426;2022-08-19T09:48:57;35.40;34.90
17415;DHT22;8825;48.086;16.426;2022-08-19T09:51:26;35.70;34.30
17415;DHT22;8825;48.086;16.426;2022-08-19T09:53:59;35.80;33.60
17415;DHT22;8825;48.086;16.426;2022-08-19T09:56:26;36.00;33.50
17415;DHT22;8825;48.086;16.426;2022-08-19T09:58:53;36.10;33.20
17415;DHT22;8825;48.086;16.426;2022-08-19T10:01:24;36.30;32.50
17415;DHT22;8825;48.086;16.426;2022-08-19T10:03:56;36.30;32.40
17415;DHT22;8825;48.086;16.426;2022-08-19T10:06:24;36.20;31.80
17415;DHT22;8825;48.086;16.426;2022-08-19T10:08:52;36.20;32.50
17415;DHT22;8825;48.086;16.426;2022-08-19T10:11:21;36.20;32.60
17415;DHT22;8825;48.086;16.426;2022-08-19T10:13:48;36.20;32.80
17415;DHT22;8825;48.086;16.426;2022-08-19T10:16:19;36.10;32.90
17415;DHT22;8825;48.086;16.426;2022-08-19T10:18:48;36.30;33.70
17415;DHT22;8825;48.086;16.426;2022-08-19T10:21:19;36.30;33.00
17415;DHT22;8825;48.086;16.426;2022-08-19T10:23:49;36.10;33.00
17415;DHT22;8825;48.086;16.426;2022-08-19T10:26:21;35.80;33.30
17415;DHT22;8825;48.086;16.426;2022-08-19T10:28:48;35.40;33.70
17415;DHT22;8825;48.086;16.426;2022-08-19T10:31:23;35.10;34.50
17415;DHT22;8825;48.086;16.426;2022-08-19T10:33:51;34.80;34.50
17415;DHT22;8825;48.086;16.426;2022-08-19T10:36:33;34.40;34.70
17415;DHT22;8825;48.086;16.426;2022-08-19T10:39:05;34.10;35.70
17415;DHT22;8825;48.086;16.426;2022-08-19T10:41:34;33.70;35.50
17415;DHT22;8825;48.086;16.426;2022-08-19T10:44:07;33.30;36.10
17415;DHT22;8825;48.086;16.426;2022-08-19T10:46:40;33.10;36.40
17415;DHT22;8825;48.086;16.426;2022-08-19T10:49:10;32.90;36.80
17415;DHT22;8825;48.086;16.426;2022-08-19T10:51:39;32.70;37.00
17415;DHT22;8825;48.086;16.426;2022-08-19T10:54:25;32.40;37.30
17415;DHT22;8825;48.086;16.426;2022-08-19T10:56:55;32.20;38.10
17415;DHT22;8825;48.086;16.426;2022-08-19T10:59:25;31.90;39.50
17415;DHT22;8825;48.086;16.426;2022-08-19T11:01:58;31.60;40.40
17415;DHT22;8825;48.086;16.426;2022-08-19T11:04:23;31.40;41.30
17415;DHT22;8825;48.086;16.426;2022-08-19T11:06:51;31.30;42.50
17415;DHT22;8825;48.086;16.426;2022-08-19T11:09:21;31.00;43.30
17415;DHT22;8825;48.086;16.426;2022-08-19T11:11:53;30.70;43.40
17415;DHT22;8825;48.086;16.426;2022-08-19T11:14:23;30.40;43.70
17415;DHT22;8825;48.086;16.426;2022-08-19T11:16:52;30.20;44.30
17415;DHT22;8825;48.086;16.426;2022-08-19T11:19:21;30.10;44.60
17415;DHT22;8825;48.086;16.426;2022-08-19T11:21:51;30.10;44.60
17415;DHT22;8825;48.086;16.426;2022-08-19T11:24:24;30.10;44.80
17415;DHT22;8825;48.086;16.426;2022-08-19T11:26:54;30.20;45.20
17415;DHT22;8825;48.086;16.426;2022-08-19T11:29:26;30.30;45.40
17415;DHT22;8825;48.086;16.426;2022-08-19T11:31:54;30.50;45.50
17415;DHT22;8825;48.086;16.426;2022-08-19T11:34:25;30.70;45.30
17415;DHT22;8825;48.086;16.426;2022-08-19T11:36:54;30.90;45.00
17415;DHT22;8825;48.086;16.426;2022-08-19T11:39:25;31.10;44.20
17415;DHT22;8825;48.086;16.426;2022-08-19T11:41:53;31.10;43.80
17415;DHT22;8825;48.086;16.426;2022-08-19T11:44:20;31.00;43.60
17415;DHT22;8825;48.086;16.426;2022-08-19T11:46:48;31.20;44.00
17415;DHT22;8825;48.086;16.426;2022-08-19T11:49:18;31.30;43.60
17415;DHT22;8825;48.086;16.426;2022-08-19T11:51:48;31.40;43.60
17415;DHT22;8825;48.086;16.426;2022-08-19T11:54:17;31.50;43.70
17415;DHT22;8825;48.086;16.426;2022-08-19T11:56:45;31.70;43.50
17415;DHT22;8825;48.086;16.426;2022-08-19T11:59:14;31.90;43.30
17415;DHT22;8825;48.086;16.426;2022-08-19T12:01:42;31.90;42.80
17415;DHT22;8825;48.086;16.426;2022-08-19T12:04:10;31.90;42.60
17415;DHT22;8825;48.086;16.426;2022-08-19T12:06:39;31.90;42.20
17415;DHT22;8825;48.086;16.426;2022-08-19T12:09:09;31.70;42.40
17415;DHT22;8825;48.086;16.426;2022-08-19T12:11:38;31.60;42.60
17415;DHT22;8825;48.086;16.426;2022-08-19T12:14:11;31.60;43.20
17415;DHT22;8825;48.086;16.426;2022-08-19T12:16:40;31.50;43.40
17415;DHT22;8825;48.086;16.426;2022-08-19T12:19:08;31.70;43.70
17415;DHT22;8825;48.086;16.426;2022-08-19T12:21:35;31.90;43.70
17415;DHT22;8825;48.086;16.426;2022-08-19T12:24:05;31.90;43.80
17415;DHT22;8825;48.086;16.426;2022-08-19T12:26:34;32.00;43.70
17415;DHT22;8825;48.086;16.426;2022-08-19T12:29:02;31.90;43.20
17415;DHT22;8825;48.086;16.426;2022-08-19T12:31:30;31.80;43.10
17415;DHT22;8825;48.086;16.426;2022-08-19T12:33:59;31.80;43.40
17415;DHT22;8825;48.086;16.426;2022-08-19T12:36:28;31.60;43.40
17415;DHT22;8825;48.086;16.426;2022-08-19T12:38:57;31.50;43.60
17415;DHT22;8825;48.086;16.426;2022-08-19T12:41:26;31.40;43.50
17415;DHT22;8825;48.086;16.426;2022-08-19T12:43:54;31.20;43.60
17415;DHT22;8825;48.086;16.426;2022-08-19T12:46:21;31.00;44.20
17415;DHT22;8825;48.086;16.426;2022-08-19T12:48:49;30.80;44.60
17415;DHT22;8825;48.086;16.426;2022-08-19T12:51:19;30.70;44.20
17415;DHT22;8825;48.086;16.426;2022-08-19T12:53:47;30.60;44.10
17415;DHT22;8825;48.086;16.426;2022-08-19T12:56:16;30.50;44.00
17415;DHT22;8825;48.086;16.426;2022-08-19T12:58:45;30.50;43.70
17415;DHT22;8825;48.086;16.426;2022-08-19T13:01:15;30.40;44.00
17415;DHT22;8825;48.086;16.426;2022-08-19T13:03:44;30.30;44.10
17415;DHT22;8825;48.086;16.426;2022-08-19T13:06:12;30.30;44.30
17415;DHT22;8825;48.086;16.426;2022-08-19T13:08:41;30.20;44.50
17415;DHT22;8825;48.086;16.426;2022-08-19T13:11:14;30.20;44.60
17415;DHT22;8825;48.086;16.426;2022-08-19T13:13:45;30.20;44.90
17415;DHT22;8825;48.086;16.426;2022-08-19T13:16:14;30.20;45.10
17415;DHT22;8825;48.086;16.426;2022-08-19T13:18:43;30.10;45.30
17415;DHT22;8825;48.086;16.426;2022-08-19T13:21:13;30.10;45.50
17415;DHT22;8825;48.086;16.426;2022-08-19T13:23:41;30.00;45.60
17415;DHT22;8825;48.086;16.426;2022-08-19T13:26:10;29.90;45.40
17415;DHT22;8825;48.086;16.426;2022-08-19T13:28:39;29.90;45.60
17415;DHT22;8825;48.086;16.426;2022-08-19T13:31:28;29.80;45.80
17415;DHT22;8825;48.086;16.426;2022-08-19T13:34:14;29.70;46.40
17415;DHT22;8825;48.086;16.426;2022-08-19T13:36:42;29.60;47.00
17415;DHT22;8825;48.086;16.426;2022-08-19T13:39:11;29.40;47.30
17415;DHT22;8825;48.086;16.426;2022-08-19T13:41:43;29.20;48.40
17415;DHT22;8825;48.086;16.426;2022-08-19T13:44:09;29.00;49.10
17415;DHT22;8825;48.086;16.426;2022-08-19T13:46:36;28.90;50.30
17415;DHT22;8825;48.086;16.426;2022-08-19T13:49:04;28.80;50.50
17415;DHT22;8825;48.086;16.426;2022-08-19T13:51:31;28.80;50.40
17415;DHT22;8825;48.086;16.426;2022-08-19T13:53:59;28.80;50.40
17415;DHT22;8825;48.086;16.426;2022-08-19T13:56:26;28.70;50.90
17415;DHT22;8825;48.086;16.426;2022-08-19T13:58:54;28.60;50.70
17415;DHT22;8825;48.086;16.426;2022-08-19T14:01:23;28.60;50.80
17415;DHT22;8825;48.086;16.426;2022-08-19T14:03:51;28.60;50.90
17415;DHT22;8825;48.086;16.426;2022-08-19T14:06:19;28.60;50.90
17415;DHT22;8825;48.086;16.426;2022-08-19T14:08:48;28.70;51.00
17415;DHT22;8825;48.086;16.426;2022-08-19T14:11:16;28.70;50.80
17415;DHT22;8825;48.086;16.426;2022-08-19T14:13:44;28.80;50.80
17415;DHT22;8825;48.086;16.426;2022-08-19T14:16:13;28.90;50.70
17415;DHT22;8825;48.086;16.426;2022-08-19T14:18:41;28.90;50.40
17415;DHT22;8825;48.086;16.426;2022-08-19T14:21:20;29.00;50.60
17415;DHT22;8825;48.086;16.426;2022-08-19T14:23:43;29.00;50.20
17415;DHT22;8825;48.086;16.426;2022-08-19T14:26:13;29.00;50.30
17415;DHT22;8825;48.086;16.426;2022-08-19T14:28:42;29.00;50.40
17415;DHT22;8825;48.086;16.426;2022-08-19T14:31:11;29.10;49.90
17415;DHT22;8825;48.086;16.426;2022-08-19T14:33:40;29.00;48.80
17415;DHT22;8825;48.086;16.426;2022-08-19T14:36:08;28.90;48.00
17415;DHT22;8825;48.086;16.426;2022-08-19T14:38:36;28.80;47.80
17415;DHT22;8825;48.086;16.426;2022-08-19T14:41:14;28.70;48.10
17415;DHT22;8825;48.086;16.426;2022-08-19T14:43:49;28.80;48.20
17415;DHT22;8825;48.086;16.426;2022-08-19T14:46:19;28.80;47.30
17415;DHT22;8825;48.086;16.426;2022-08-19T14:48:47;28.80;47.70
17415;DHT22;8825;48.086;16.426;2022-08-19T14:51:16;28.80;47.20
17415;DHT22;8825;48.086;16.426;2022-08-19T14:53:45;28.80;47.20
17415;DHT22;8825;48.086;16.426;2022-08-19T14:56:18;28.80;46.70
17415;DHT22;8825;48.086;16.426;2022-08-19T14:58:46;28.80;46.30
17415;DHT22;8825;48.086;16.426;2022-08-19T15:01:13;28.80;46.20
17415;DHT22;8825;48.086;16.426;2022-08-19T15:03:41;28.90;45.50
17415;DHT22;8825;48.086;16.426;2022-08-19T15:06:09;28.90;45.50
17415;DHT22;8825;48.086;16.426;2022-08-19T15:08:37;29.00;45.80
17415;DHT22;8825;48.086;16.426;2022-08-19T15:11:11;29.10;45.80
17415;DHT22;8825;48.086;16.426;2022-08-19T15:13:42;29.20;45.60
17415;DHT22;8825;48.086;16.426;2022-08-19T15:16:11;29.20;45.70
17415;DHT22;8825;48.086;16.426;2022-08-19T15:18:41;29.30;45.60
17415;DHT22;8825;48.086;16.426;2022-08-19T15:21:12;29.30;45.40
17415;DHT22;8825;48.086;16.426;2022-08-19T15:23:40;29.30;45.40
17415;DHT22;8825;48.086;16.426;2022-08-19T15:26:08;29.40;45.50
17415;DHT22;8825;48.086;16.426;2022-08-19T15:28:37;29.30;44.60
17415;DHT22;8825;48.086;16.426;2022-08-19T15:31:04;29.30;44.70
17415;DHT22;8825;48.086;16.426;2022-08-19T15:33:34;29.30;44.50
17415;DHT22;8825;48.086;16.426;2022-08-19T15:36:06;29.20;43.50
17415;DHT22;8825;48.086;16.426;2022-08-19T15:38:34;29.20;42.80
17415;DHT22;8825;48.086;16.426;2022-08-19T15:41:03;29.20;42.20
17415;DHT22;8825;48.086;16.426;2022-08-19T15:44:09;29.20;42.00
17415;DHT22;8825;48.086;16.426;2022-08-19T15:46:23;29.20;42.40
17415;DHT22;8825;48.086;16.426;2022-08-19T15:48:52;29.20;42.40
17415;DHT22;8825;48.086;16.426;2022-08-19T15:51:20;29.20;42.60